sensor_id;sensor_type;location;lat;lon;timestamp;P1;durP1;ratioP1;P2;durP2;ratioP2
72235;SDS011;60146;52.498;13.462;2022-10-16T00:00:42;4.47;;;2.93;;
72235;SDS011;60146;52.498;13.462;2022-10-16T00:03:08;5.07;;;2.90;;
72235;SDS011;60146;52.498;13.462;2022-10-16T00:05:38;4.93;;;3.40;;
72235;SDS011;60146;52.498;13.462;2022-10-16T00:08:03;5.97;;;2.83;;
72235;SDS011;60146;52.498;13.462;2022-10-16T00:10:28;3.10;;;2.10;;
72235;SDS011;60146;52.498;13.462;2022-10-16T00:12:53;2.80;;;2.13;;
72235;SDS011;60146;52.498;13.462;2022-10-16T00:15:19;3.80;;;2.00;;
72235;SDS011;60146;52.498;13.462;2022-10-16T00:17:44;3.37;;;2.27;;
72235;SDS011;60146;52.498;13.462;2022-10-16T00:20:09;6.43;;;2.60;;
72235;SDS011;60146;52.498;13.462;2022-10-16T00:22:34;3.47;;;2.00;;
72235;SDS011;60146;52.498;13.462;2022-10-16T00:24:59;4.45;;;2.22;;
72235;SDS011;60146;52.498;13.462;2022-10-16T00:27:24;3.13;;;2.20;;
72235;SDS011;60146;52.498;13.462;2022-10-16T00:29:50;3.10;;;1.90;;
72235;SDS011;60146;52.498;13.462;2022-10-16T00:32:16;3.57;;;2.20;;
72235;SDS011;60146;52.498;13.462;2022-10-16T00:34:41;3.57;;;2.00;;
72235;SDS011;60146;52.498;13.462;2022-10-16T00:37:06;4.87;;;2.00;;
72235;SDS011;60146;52.498;13.462;2022-10-16T00:39:31;4.13;;;2.10;;
72235;SDS011;60146;52.498;13.462;2022-10-16T00:41:57;3.13;;;2.07;;
72235;SDS011;60146;52.498;13.462;2022-10-16T00:47:27;3.00;;;2.00;;
72235;SDS011;60146;52.498;13.462;2022-10-16T00:49:53;3.63;;;2.00;;
72235;SDS011;60146;52.498;13.462;2022-10-16T00:52:20;2.70;;;1.73;;
72235;SDS011;60146;52.498;13.462;2022-10-16T00:54:46;3.23;;;2.17;;
72235;SDS011;60146;52.498;13.462;2022-10-16T00:57:11;3.17;;;1.80;;
72235;SDS011;60146;52.498;13.462;2022-10-16T00:59:37;3.37;;;2.27;;
72235;SDS011;60146;52.498;13.462;2022-10-16T01:02:04;2.60;;;2.00;;
72235;SDS011;60146;52.498;13.462;2022-10-16T01:04:35;3.93;;;2.00;;
72235;SDS011;60146;52.498;13.462;2022-10-16T01:12:09;2.10;;;1.90;;
72235;SDS011;60146;52.498;13.462;2022-10-16T01:14:48;2.58;;;1.83;;
72235;SDS011;60146;52.498;13.462;2022-10-16T01:17:21;1.60;;;1.50;;
72235;SDS011;60146;52.498;13.462;2022-10-16T01:20:00;4.90;;;2.10;;
72235;SDS011;60146;52.498;13.462;2022-10-16T01:22:28;3.13;;;1.87;;
72235;SDS011;60146;52.498;13.462;2022-10-16T01:24:56;5.47;;;2.15;;
72235;SDS011;60146;52.498;13.462;2022-10-16T01:27:32;2.67;;;1.90;;
72235;SDS011;60146;52.498;13.462;2022-10-16T01:30:10;2.50;;;1.77;;
72235;SDS011;60146;52.498;13.462;2022-10-16T01:32:36;4.07;;;1.70;;
72235;SDS011;60146;52.498;13.462;2022-10-16T01:35:14;2.10;;;1.80;;
72235;SDS011;60146;52.498;13.462;2022-10-16T01:37:47;3.67;;;2.03;;
72235;SDS011;60146;52.498;13.462;2022-10-16T01:40:14;1.97;;;1.67;;
72235;SDS011;60146;52.498;13.462;2022-10-16T01:42:42;3.20;;;1.63;;
72235;SDS011;60146;52.498;13.462;2022-10-16T01:45:08;3.10;;;1.87;;
72235;SDS011;60146;52.498;13.462;2022-10-16T01:47:36;4.87;;;1.77;;
72235;SDS011;60146;52.498;13.462;2022-10-16T01:50:03;2.80;;;2.00;;
72235;SDS011;60146;52.498;13.462;2022-10-16T01:52:29;2.53;;;1.60;;
72235;SDS011;60146;52.498;13.462;2022-10-16T01:54:57;3.57;;;2.40;;
72235;SDS011;60146;52.498;13.462;2022-10-16T01:57:23;3.47;;;1.60;;
72235;SDS011;60146;52.498;13.462;2022-10-16T01:59:50;5.03;;;2.00;;
72235;SDS011;60146;52.498;13.462;2022-10-16T02:02:17;3.03;;;1.80;;
72235;SDS011;60146;52.498;13.462;2022-10-16T02:04:45;2.43;;;1.50;;
72235;SDS011;60146;52.498;13.462;2022-10-16T02:07:11;2.27;;;1.60;;
72235;SDS011;60146;52.498;13.462;2022-10-16T02:09:37;2.60;;;1.50;;
72235;SDS011;60146;52.498;13.462;2022-10-16T02:12:45;1.83;;;1.60;;
72235;SDS011;60146;52.498;13.462;2022-10-16T02:14:51;1.87;;;1.50;;
72235;SDS011;60146;52.498;13.462;2022-10-16T02:17:17;2.07;;;1.50;;
72235;SDS011;60146;52.498;13.462;2022-10-16T02:19:42;2.83;;;1.50;;
72235;SDS011;60146;52.498;13.462;2022-10-16T02:22:09;2.33;;;1.40;;
72235;SDS011;60146;52.498;13.462;2022-10-16T02:27:02;1.88;;;1.38;;
72235;SDS011;60146;52.498;13.462;2022-10-16T02:29:28;1.90;;;1.40;;
72235;SDS011;60146;52.498;13.462;2022-10-16T02:31:55;2.30;;;1.57;;
72235;SDS011;60146;52.498;13.462;2022-10-16T02:34:21;1.87;;;1.40;;
72235;SDS011;60146;52.498;13.462;2022-10-16T02:36:48;2.20;;;1.63;;
72235;SDS011;60146;52.498;13.462;2022-10-16T02:39:15;4.23;;;1.70;;
72235;SDS011;60146;52.498;13.462;2022-10-16T02:41:41;3.47;;;1.73;;
72235;SDS011;60146;52.498;13.462;2022-10-16T02:44:06;3.13;;;1.55;;
72235;SDS011;60146;52.498;13.462;2022-10-16T02:46:31;6.90;;;2.07;;
72235;SDS011;60146;52.498;13.462;2022-10-16T02:48:56;2.65;;;1.80;;
72235;SDS011;60146;52.498;13.462;2022-10-16T02:51:21;2.57;;;1.70;;
72235;SDS011;60146;52.498;13.462;2022-10-16T02:53:46;2.60;;;1.70;;
72235;SDS011;60146;52.498;13.462;2022-10-16T02:56:12;3.60;;;1.50;;
72235;SDS011;60146;52.498;13.462;2022-10-16T02:58:37;7.33;;;2.33;;
72235;SDS011;60146;52.498;13.462;2022-10-16T03:01:02;4.90;;;1.70;;
72235;SDS011;60146;52.498;13.462;2022-10-16T03:03:27;3.93;;;1.57;;
72235;SDS011;60146;52.498;13.462;2022-10-16T03:05:52;3.20;;;1.40;;
72235;SDS011;60146;52.498;13.462;2022-10-16T03:08:17;2.60;;;1.40;;
72235;SDS011;60146;52.498;13.462;2022-10-16T03:10:48;2.13;;;1.50;;
72235;SDS011;60146;52.498;13.462;2022-10-16T03:13:13;1.27;;;1.13;;
72235;SDS011;60146;52.498;13.462;2022-10-16T03:15:38;2.20;;;1.30;;
72235;SDS011;60146;52.498;13.462;2022-10-16T03:18:03;2.67;;;1.30;;
72235;SDS011;60146;52.498;13.462;2022-10-16T03:20:28;1.90;;;1.27;;
72235;SDS011;60146;52.498;13.462;2022-10-16T03:22:54;1.70;;;1.30;;
72235;SDS011;60146;52.498;13.462;2022-10-16T03:25:19;3.38;;;1.50;;
72235;SDS011;60146;52.498;13.462;2022-10-16T03:27:44;2.20;;;1.23;;
72235;SDS011;60146;52.498;13.462;2022-10-16T03:30:09;3.93;;;1.67;;
72235;SDS011;60146;52.498;13.462;2022-10-16T03:32:34;1.60;;;1.30;;
72235;SDS011;60146;52.498;13.462;2022-10-16T03:35:00;3.47;;;1.43;;
72235;SDS011;60146;52.498;13.462;2022-10-16T03:37:25;1.43;;;1.23;;
72235;SDS011;60146;52.498;13.462;2022-10-16T03:39:50;4.40;;;1.40;;
72235;SDS011;60146;52.498;13.462;2022-10-16T03:42:15;1.80;;;1.40;;
72235;SDS011;60146;52.498;13.462;2022-10-16T03:44:40;2.92;;;1.48;;
72235;SDS011;60146;52.498;13.462;2022-10-16T03:47:05;3.67;;;1.53;;
72235;SDS011;60146;52.498;13.462;2022-10-16T03:49:31;3.00;;;1.50;;
72235;SDS011;60146;52.498;13.462;2022-10-16T03:51:56;2.17;;;1.50;;
72235;SDS011;60146;52.498;13.462;2022-10-16T03:54:21;2.47;;;1.60;;
72235;SDS011;60146;52.498;13.462;2022-10-16T03:56:47;2.17;;;1.43;;
72235;SDS011;60146;52.498;13.462;2022-10-16T03:59:12;1.63;;;1.40;;
72235;SDS011;60146;52.498;13.462;2022-10-16T04:01:37;1.40;;;1.30;;
72235;SDS011;60146;52.498;13.462;2022-10-16T04:04:02;1.90;;;1.57;;
72235;SDS011;60146;52.498;13.462;2022-10-16T04:06:27;3.35;;;1.73;;
72235;SDS011;60146;52.498;13.462;2022-10-16T04:08:52;2.22;;;1.30;;
72235;SDS011;60146;52.498;13.462;2022-10-16T04:11:18;2.33;;;1.50;;
72235;SDS011;60146;52.498;13.462;2022-10-16T04:13:43;3.17;;;1.60;;
72235;SDS011;60146;52.498;13.462;2022-10-16T04:16:08;2.37;;;1.50;;
72235;SDS011;60146;52.498;13.462;2022-10-16T04:18:33;2.10;;;1.63;;
72235;SDS011;60146;52.498;13.462;2022-10-16T04:21:03;1.87;;;1.43;;
72235;SDS011;60146;52.498;13.462;2022-10-16T04:23:29;2.07;;;1.53;;
72235;SDS011;60146;52.498;13.462;2022-10-16T04:25:54;2.00;;;1.70;;
72235;SDS011;60146;52.498;13.462;2022-10-16T04:28:19;3.37;;;1.80;;
72235;SDS011;60146;52.498;13.462;2022-10-16T04:30:44;2.05;;;1.77;;
72235;SDS011;60146;52.498;13.462;2022-10-16T04:33:09;3.83;;;1.80;;
72235;SDS011;60146;52.498;13.462;2022-10-16T04:35:35;1.83;;;1.47;;
72235;SDS011;60146;52.498;13.462;2022-10-16T04:38:00;1.90;;;1.50;;
72235;SDS011;60146;52.498;13.462;2022-10-16T04:40:25;3.17;;;2.00;;
72235;SDS011;60146;52.498;13.462;2022-10-16T04:42:50;3.37;;;2.03;;
72235;SDS011;60146;52.498;13.462;2022-10-16T04:45:15;4.90;;;2.17;;
72235;SDS011;60146;52.498;13.462;2022-10-16T04:47:41;5.23;;;2.40;;
72235;SDS011;60146;52.498;13.462;2022-10-16T04:50:06;6.60;;;2.93;;
72235;SDS011;60146;52.498;13.462;2022-10-16T04:52:32;9.63;;;4.00;;
72235;SDS011;60146;52.498;13.462;2022-10-16T04:54:57;13.00;;;5.00;;
72235;SDS011;60146;52.498;13.462;2022-10-16T04:57:25;18.07;;;6.53;;
72235;SDS011;60146;52.498;13.462;2022-10-16T04:59:51;11.47;;;4.27;;
72235;SDS011;60146;52.498;13.462;2022-10-16T05:02:16;13.18;;;4.55;;
72235;SDS011;60146;52.498;13.462;2022-10-16T05:04:42;9.85;;;3.85;;
72235;SDS011;60146;52.498;13.462;2022-10-16T05:07:07;8.40;;;3.42;;
72235;SDS011;60146;52.498;13.462;2022-10-16T05:09:32;5.13;;;2.77;;
72235;SDS011;60146;52.498;13.462;2022-10-16T05:11:57;14.00;;;5.10;;
72235;SDS011;60146;52.498;13.462;2022-10-16T05:14:22;5.55;;;3.00;;
72235;SDS011;60146;52.498;13.462;2022-10-16T05:16:47;3.67;;;2.03;;
72235;SDS011;60146;52.498;13.462;2022-10-16T05:19:13;2.23;;;1.70;;
72235;SDS011;60146;52.498;13.462;2022-10-16T05:21:38;2.00;;;1.80;;
72235;SDS011;60146;52.498;13.462;2022-10-16T05:24:03;4.63;;;2.30;;
72235;SDS011;60146;52.498;13.462;2022-10-16T05:26:28;12.23;;;4.00;;
72235;SDS011;60146;52.498;13.462;2022-10-16T05:28:54;9.23;;;3.63;;
72235;SDS011;60146;52.498;13.462;2022-10-16T05:31:19;4.50;;;2.50;;
72235;SDS011;60146;52.498;13.462;2022-10-16T05:33:44;18.27;;;6.20;;
72235;SDS011;60146;52.498;13.462;2022-10-16T05:36:10;14.80;;;5.33;;
72235;SDS011;60146;52.498;13.462;2022-10-16T05:38:35;6.80;;;3.00;;
72235;SDS011;60146;52.498;13.462;2022-10-16T05:41:01;11.27;;;4.70;;
72235;SDS011;60146;52.498;13.462;2022-10-16T05:43:29;9.17;;;4.00;;
72235;SDS011;60146;52.498;13.462;2022-10-16T05:45:55;2.80;;;2.13;;
72235;SDS011;60146;52.498;13.462;2022-10-16T05:48:21;3.27;;;2.00;;
72235;SDS011;60146;52.498;13.462;2022-10-16T05:50:47;2.97;;;2.00;;
72235;SDS011;60146;52.498;13.462;2022-10-16T05:53:12;2.33;;;1.63;;
72235;SDS011;60146;52.498;13.462;2022-10-16T05:55:37;2.60;;;1.77;;
72235;SDS011;60146;52.498;13.462;2022-10-16T05:58:02;2.13;;;1.80;;
72235;SDS011;60146;52.498;13.462;2022-10-16T06:00:28;3.27;;;1.70;;
72235;SDS011;60146;52.498;13.462;2022-10-16T06:02:53;5.90;;;2.27;;
72235;SDS011;60146;52.498;13.462;2022-10-16T06:05:19;3.87;;;2.07;;
72235;SDS011;60146;52.498;13.462;2022-10-16T06:07:44;2.80;;;2.10;;
72235;SDS011;60146;52.498;13.462;2022-10-16T06:10:10;3.77;;;2.40;;
72235;SDS011;60146;52.498;13.462;2022-10-16T06:12:35;4.90;;;2.50;;
72235;SDS011;60146;52.498;13.462;2022-10-16T06:15:00;5.50;;;2.57;;
72235;SDS011;60146;52.498;13.462;2022-10-16T06:17:26;7.53;;;2.60;;
72235;SDS011;60146;52.498;13.462;2022-10-16T06:19:51;4.80;;;2.47;;
72235;SDS011;60146;52.498;13.462;2022-10-16T06:22:16;7.27;;;2.80;;
72235;SDS011;60146;52.498;13.462;2022-10-16T06:24:42;11.80;;;4.50;;
72235;SDS011;60146;52.498;13.462;2022-10-16T06:27:07;4.73;;;2.60;;
72235;SDS011;60146;52.498;13.462;2022-10-16T06:29:32;5.20;;;2.47;;
72235;SDS011;60146;52.498;13.462;2022-10-16T06:31:57;15.97;;;5.47;;
72235;SDS011;60146;52.498;13.462;2022-10-16T06:34:22;11.17;;;4.73;;
72235;SDS011;60146;52.498;13.462;2022-10-16T06:36:47;5.07;;;2.70;;
72235;SDS011;60146;52.498;13.462;2022-10-16T06:39:13;4.70;;;2.27;;
72235;SDS011;60146;52.498;13.462;2022-10-16T06:41:38;5.80;;;2.43;;
72235;SDS011;60146;52.498;13.462;2022-10-16T06:44:06;4.67;;;2.53;;
72235;SDS011;60146;52.498;13.462;2022-10-16T06:46:32;3.23;;;2.10;;
72235;SDS011;60146;52.498;13.462;2022-10-16T06:48:57;5.77;;;2.73;;
72235;SDS011;60146;52.498;13.462;2022-10-16T06:51:23;10.37;;;2.60;;
72235;SDS011;60146;52.498;13.462;2022-10-16T06:53:50;4.20;;;2.30;;
72235;SDS011;60146;52.498;13.462;2022-10-16T06:56:16;4.60;;;2.20;;
72235;SDS011;60146;52.498;13.462;2022-10-16T06:58:42;2.87;;;1.80;;
72235;SDS011;60146;52.498;13.462;2022-10-16T07:01:08;3.57;;;2.00;;
72235;SDS011;60146;52.498;13.462;2022-10-16T07:03:33;5.53;;;2.00;;
72235;SDS011;60146;52.498;13.462;2022-10-16T07:06:01;5.82;;;2.40;;
72235;SDS011;60146;52.498;13.462;2022-10-16T07:08:26;4.67;;;2.23;;
72235;SDS011;60146;52.498;13.462;2022-10-16T07:10:58;10.30;;;3.23;;
72235;SDS011;60146;52.498;13.462;2022-10-16T07:13:24;6.00;;;2.67;;
72235;SDS011;60146;52.498;13.462;2022-10-16T07:15:49;4.73;;;1.87;;
72235;SDS011;60146;52.498;13.462;2022-10-16T07:18:14;4.04;;;1.98;;
72235;SDS011;60146;52.498;13.462;2022-10-16T07:20:39;4.38;;;1.92;;
72235;SDS011;60146;52.498;13.462;2022-10-16T07:23:04;6.70;;;2.00;;
72235;SDS011;60146;52.498;13.462;2022-10-16T07:25:29;2.30;;;1.60;;
72235;SDS011;60146;52.498;13.462;2022-10-16T07:27:55;2.72;;;1.65;;
72235;SDS011;60146;52.498;13.462;2022-10-16T07:30:21;10.70;;;2.97;;
72235;SDS011;60146;52.498;13.462;2022-10-16T07:32:46;3.27;;;1.80;;
72235;SDS011;60146;52.498;13.462;2022-10-16T07:35:11;2.46;;;1.40;;
72235;SDS011;60146;52.498;13.462;2022-10-16T07:37:36;6.62;;;1.70;;
72235;SDS011;60146;52.498;13.462;2022-10-16T07:40:01;4.23;;;1.67;;
72235;SDS011;60146;52.498;13.462;2022-10-16T07:42:27;7.87;;;2.20;;
72235;SDS011;60146;52.498;13.462;2022-10-16T07:44:52;2.80;;;1.80;;
72235;SDS011;60146;52.498;13.462;2022-10-16T07:47:17;1.77;;;1.37;;
72235;SDS011;60146;52.498;13.462;2022-10-16T07:49:42;2.80;;;1.50;;
72235;SDS011;60146;52.498;13.462;2022-10-16T07:52:07;2.98;;;1.30;;
72235;SDS011;60146;52.498;13.462;2022-10-16T07:54:33;2.95;;;1.17;;
72235;SDS011;60146;52.498;13.462;2022-10-16T07:56:58;1.73;;;1.20;;
72235;SDS011;60146;52.498;13.462;2022-10-16T07:59:23;2.78;;;1.30;;
72235;SDS011;60146;52.498;13.462;2022-10-16T08:01:48;3.25;;;1.20;;
72235;SDS011;60146;52.498;13.462;2022-10-16T08:04:14;1.30;;;1.20;;
72235;SDS011;60146;52.498;13.462;2022-10-16T08:06:39;2.98;;;1.10;;
72235;SDS011;60146;52.498;13.462;2022-10-16T08:09:05;1.05;;;1.00;;
72235;SDS011;60146;52.498;13.462;2022-10-16T08:11:30;1.70;;;1.10;;
72235;SDS011;60146;52.498;13.462;2022-10-16T08:13:56;1.33;;;1.10;;
72235;SDS011;60146;52.498;13.462;2022-10-16T08:16:21;2.90;;;1.20;;
72235;SDS011;60146;52.498;13.462;2022-10-16T08:18:47;1.20;;;1.10;;
72235;SDS011;60146;52.498;13.462;2022-10-16T08:21:13;2.20;;;1.00;;
72235;SDS011;60146;52.498;13.462;2022-10-16T08:23:38;1.10;;;1.00;;
72235;SDS011;60146;52.498;13.462;2022-10-16T08:26:05;3.24;;;1.04;;
72235;SDS011;60146;52.498;13.462;2022-10-16T08:28:30;2.42;;;1.20;;
72235;SDS011;60146;52.498;13.462;2022-10-16T08:30:56;2.28;;;1.10;;
72235;SDS011;60146;52.498;13.462;2022-10-16T08:33:24;2.70;;;1.30;;
72235;SDS011;60146;52.498;13.462;2022-10-16T08:35:52;1.17;;;1.08;;
72235;SDS011;60146;52.498;13.462;2022-10-16T08:38:18;1.17;;;1.00;;
72235;SDS011;60146;52.498;13.462;2022-10-16T08:40:44;4.60;;;1.23;;
72235;SDS011;60146;52.498;13.462;2022-10-16T08:45:46;1.95;;;1.10;;
72235;SDS011;60146;52.498;13.462;2022-10-16T08:50:40;1.00;;;0.90;;
72235;SDS011;60146;52.498;13.462;2022-10-16T08:53:05;1.00;;;0.80;;
72235;SDS011;60146;52.498;13.462;2022-10-16T08:57:57;1.85;;;1.20;;
72235;SDS011;60146;52.498;13.462;2022-10-16T09:00:23;3.75;;;1.15;;
72235;SDS011;60146;52.498;13.462;2022-10-16T09:02:50;3.67;;;1.25;;
72235;SDS011;60146;52.498;13.462;2022-10-16T09:05:21;1.02;;;0.93;;
72235;SDS011;60146;52.498;13.462;2022-10-16T09:10:54;1.27;;;1.13;;
72235;SDS011;60146;52.498;13.462;2022-10-16T09:13:23;5.45;;;1.30;;
72235;SDS011;60146;52.498;13.462;2022-10-16T09:21:28;1.00;;;0.90;;
72235;SDS011;60146;52.498;13.462;2022-10-16T09:23:56;1.10;;;1.00;;
72235;SDS011;60146;52.498;13.462;2022-10-16T09:26:22;1.38;;;1.00;;
72235;SDS011;60146;52.498;13.462;2022-10-16T09:28:47;1.67;;;1.00;;
72235;SDS011;60146;52.498;13.462;2022-10-16T09:31:16;1.63;;;0.80;;
72235;SDS011;60146;52.498;13.462;2022-10-16T09:33:42;1.98;;;0.85;;
72235;SDS011;60146;52.498;13.462;2022-10-16T09:36:09;2.70;;;1.00;;
72235;SDS011;60146;52.498;13.462;2022-10-16T09:38:35;2.58;;;0.98;;
72235;SDS011;60146;52.498;13.462;2022-10-16T09:41:14;1.05;;;0.93;;
72235;SDS011;60146;52.498;13.462;2022-10-16T09:43:41;0.98;;;0.90;;
72235;SDS011;60146;52.498;13.462;2022-10-16T09:46:27;1.00;;;0.90;;
72235;SDS011;60146;52.498;13.462;2022-10-16T09:48:54;1.08;;;0.90;;
72235;SDS011;60146;52.498;13.462;2022-10-16T09:51:25;0.80;;;0.80;;
72235;SDS011;60146;52.498;13.462;2022-10-16T09:53:58;2.70;;;0.90;;
72235;SDS011;60146;52.498;13.462;2022-10-16T09:56:33;1.58;;;0.80;;
72235;SDS011;60146;52.498;13.462;2022-10-16T09:59:00;2.28;;;0.70;;
72235;SDS011;60146;52.498;13.462;2022-10-16T10:01:30;1.58;;;0.90;;
72235;SDS011;60146;52.498;13.462;2022-10-16T10:03:58;2.13;;;0.88;;
72235;SDS011;60146;52.498;13.462;2022-10-16T10:06:33;4.78;;;1.00;;
72235;SDS011;60146;52.498;13.462;2022-10-16T10:16:47;3.35;;;0.90;;
72235;SDS011;60146;52.498;13.462;2022-10-16T10:19:22;0.80;;;0.70;;
72235;SDS011;60146;52.498;13.462;2022-10-16T10:21:48;2.58;;;1.30;;
72235;SDS011;60146;52.498;13.462;2022-10-16T10:24:15;1.38;;;0.90;;
72235;SDS011;60146;52.498;13.462;2022-10-16T10:27:02;2.05;;;0.90;;
72235;SDS011;60146;52.498;13.462;2022-10-16T10:29:38;1.00;;;0.90;;
72235;SDS011;60146;52.498;13.462;2022-10-16T10:37:26;1.25;;;0.88;;
72235;SDS011;60146;52.498;13.462;2022-10-16T10:39:55;2.65;;;1.00;;
72235;SDS011;60146;52.498;13.462;2022-10-16T10:42:28;2.75;;;0.88;;
72235;SDS011;60146;52.498;13.462;2022-10-16T10:47:58;2.45;;;0.73;;
72235;SDS011;60146;52.498;13.462;2022-10-16T10:50:45;1.23;;;0.80;;
72235;SDS011;60146;52.498;13.462;2022-10-16T11:01:20;1.27;;;0.80;;
72235;SDS011;60146;52.498;13.462;2022-10-16T11:06:33;0.70;;;0.60;;
72235;SDS011;60146;52.498;13.462;2022-10-16T11:09:01;1.30;;;0.63;;
72235;SDS011;60146;52.498;13.462;2022-10-16T11:11:32;1.73;;;1.40;;
72235;SDS011;60146;52.498;13.462;2022-10-16T11:14:00;0.60;;;0.60;;
72235;SDS011;60146;52.498;13.462;2022-10-16T11:16:35;0.90;;;0.60;;
72235;SDS011;60146;52.498;13.462;2022-10-16T11:19:18;0.55;;;0.55;;
72235;SDS011;60146;52.498;13.462;2022-10-16T11:21:46;1.92;;;0.68;;
72235;SDS011;60146;52.498;13.462;2022-10-16T11:24:30;2.53;;;0.60;;
72235;SDS011;60146;52.498;13.462;2022-10-16T11:27:04;0.60;;;0.60;;
72235;SDS011;60146;52.498;13.462;2022-10-16T11:29:32;1.13;;;0.60;;
72235;SDS011;60146;52.498;13.462;2022-10-16T11:32:01;1.10;;;0.60;;
72235;SDS011;60146;52.498;13.462;2022-10-16T11:34:32;2.17;;;0.77;;
72235;SDS011;60146;52.498;13.462;2022-10-16T11:37:07;3.00;;;0.70;;
72235;SDS011;60146;52.498;13.462;2022-10-16T11:39:33;1.58;;;0.80;;
72235;SDS011;60146;52.498;13.462;2022-10-16T11:42:03;0.93;;;0.68;;
72235;SDS011;60146;52.498;13.462;2022-10-16T11:49:42;0.68;;;0.40;;
72235;SDS011;60146;52.498;13.462;2022-10-16T11:57:25;1.20;;;1.00;;
72235;SDS011;60146;52.498;13.462;2022-10-16T11:59:52;1.05;;;0.73;;
72235;SDS011;60146;52.498;13.462;2022-10-16T12:08:04;1.15;;;0.50;;
72235;SDS011;60146;52.498;13.462;2022-10-16T12:10:34;2.03;;;0.65;;
72235;SDS011;60146;52.498;13.462;2022-10-16T12:13:03;3.40;;;0.50;;
72235;SDS011;60146;52.498;13.462;2022-10-16T12:15:29;1.45;;;0.55;;
72235;SDS011;60146;52.498;13.462;2022-10-16T12:17:55;0.85;;;0.68;;
72235;SDS011;60146;52.498;13.462;2022-10-16T12:20:22;1.25;;;0.85;;
72235;SDS011;60146;52.498;13.462;2022-10-16T12:22:55;0.93;;;0.50;;
72235;SDS011;60146;52.498;13.462;2022-10-16T12:30:24;1.13;;;0.70;;
72235;SDS011;60146;52.498;13.462;2022-10-16T12:32:55;1.50;;;0.70;;
72235;SDS011;60146;52.498;13.462;2022-10-16T12:35:21;1.00;;;0.57;;
72235;SDS011;60146;52.498;13.462;2022-10-16T12:37:47;1.27;;;0.85;;
72235;SDS011;60146;52.498;13.462;2022-10-16T12:40:29;0.88;;;0.50;;
72235;SDS011;60146;52.498;13.462;2022-10-16T12:42:55;0.90;;;0.70;;
72235;SDS011;60146;52.498;13.462;2022-10-16T12:45:30;0.93;;;0.63;;
72235;SDS011;60146;52.498;13.462;2022-10-16T12:47:56;2.67;;;0.82;;
72235;SDS011;60146;52.498;13.462;2022-10-16T12:50:35;0.57;;;0.43;;
72235;SDS011;60146;52.498;13.462;2022-10-16T12:53:01;2.60;;;0.40;;
72235;SDS011;60146;52.498;13.462;2022-10-16T12:55:27;1.20;;;0.60;;
72235;SDS011;60146;52.498;13.462;2022-10-16T13:00:26;1.17;;;0.55;;
72235;SDS011;60146;52.498;13.462;2022-10-16T13:10:18;0.95;;;0.50;;
72235;SDS011;60146;52.498;13.462;2022-10-16T13:13:02;0.82;;;0.60;;
72235;SDS011;60146;52.498;13.462;2022-10-16T13:18:01;1.52;;;0.60;;
72235;SDS011;60146;52.498;13.462;2022-10-16T13:20:33;2.28;;;0.40;;
72235;SDS011;60146;52.498;13.462;2022-10-16T13:23:02;0.40;;;0.40;;
72235;SDS011;60146;52.498;13.462;2022-10-16T13:25:46;1.10;;;0.40;;
72235;SDS011;60146;52.498;13.462;2022-10-16T13:28:14;1.05;;;0.75;;
72235;SDS011;60146;52.498;13.462;2022-10-16T13:30:45;0.80;;;0.52;;
72235;SDS011;60146;52.498;13.462;2022-10-16T13:33:16;6.22;;;0.80;;
72235;SDS011;60146;52.498;13.462;2022-10-16T13:35:50;0.80;;;0.50;;
72235;SDS011;60146;52.498;13.462;2022-10-16T13:38:16;5.13;;;2.90;;
72235;SDS011;60146;52.498;13.462;2022-10-16T13:40:59;5.10;;;0.85;;
72235;SDS011;60146;52.498;13.462;2022-10-16T13:43:27;1.42;;;0.68;;
72235;SDS011;60146;52.498;13.462;2022-10-16T13:46:06;1.30;;;0.70;;
72235;SDS011;60146;52.498;13.462;2022-10-16T13:48:32;0.55;;;0.55;;
72235;SDS011;60146;52.498;13.462;2022-10-16T13:50:58;1.05;;;0.50;;
72235;SDS011;60146;52.498;13.462;2022-10-16T13:53:23;2.65;;;0.80;;
72235;SDS011;60146;52.498;13.462;2022-10-16T13:55:48;0.77;;;0.65;;
72235;SDS011;60146;52.498;13.462;2022-10-16T13:58:14;1.55;;;0.90;;
72235;SDS011;60146;52.498;13.462;2022-10-16T14:00:39;1.80;;;0.90;;
72235;SDS011;60146;52.498;13.462;2022-10-16T14:03:15;1.80;;;0.88;;
72235;SDS011;60146;52.498;13.462;2022-10-16T14:05:48;1.77;;;0.55;;
72235;SDS011;60146;52.498;13.462;2022-10-16T14:08:14;0.88;;;0.60;;
72235;SDS011;60146;52.498;13.462;2022-10-16T14:10:39;1.15;;;0.40;;
72235;SDS011;60146;52.498;13.462;2022-10-16T14:13:05;2.10;;;0.50;;
72235;SDS011;60146;52.498;13.462;2022-10-16T14:15:31;0.77;;;0.40;;
72235;SDS011;60146;52.498;13.462;2022-10-16T14:17:57;2.75;;;0.68;;
72235;SDS011;60146;52.498;13.462;2022-10-16T14:20:24;1.30;;;0.60;;
72235;SDS011;60146;52.498;13.462;2022-10-16T14:22:57;1.80;;;0.82;;
72235;SDS011;60146;52.498;13.462;2022-10-16T14:25:27;0.82;;;0.60;;
72235;SDS011;60146;52.498;13.462;2022-10-16T14:27:56;2.35;;;0.80;;
72235;SDS011;60146;52.498;13.462;2022-10-16T14:30:22;1.65;;;0.50;;
72235;SDS011;60146;52.498;13.462;2022-10-16T14:32:57;0.60;;;0.60;;
72235;SDS011;60146;52.498;13.462;2022-10-16T14:35:24;1.23;;;0.60;;
72235;SDS011;60146;52.498;13.462;2022-10-16T14:37:53;0.63;;;0.63;;
72235;SDS011;60146;52.498;13.462;2022-10-16T14:40:19;0.88;;;0.57;;
72235;SDS011;60146;52.498;13.462;2022-10-16T14:42:45;1.92;;;0.77;;
72235;SDS011;60146;52.498;13.462;2022-10-16T14:45:10;2.40;;;0.60;;
72235;SDS011;60146;52.498;13.462;2022-10-16T14:47:36;0.70;;;0.60;;
72235;SDS011;60146;52.498;13.462;2022-10-16T14:50:11;1.95;;;1.30;;
72235;SDS011;60146;52.498;13.462;2022-10-16T14:52:36;0.80;;;0.60;;
72235;SDS011;60146;52.498;13.462;2022-10-16T14:55:01;2.95;;;0.80;;
72235;SDS011;60146;52.498;13.462;2022-10-16T14:57:27;0.98;;;0.70;;
72235;SDS011;60146;52.498;13.462;2022-10-16T14:59:54;1.02;;;0.70;;
72235;SDS011;60146;52.498;13.462;2022-10-16T15:02:37;1.17;;;0.75;;
72235;SDS011;60146;52.498;13.462;2022-10-16T15:05:16;3.13;;;0.90;;
72235;SDS011;60146;52.498;13.462;2022-10-16T15:07:42;4.28;;;1.17;;
72235;SDS011;60146;52.498;13.462;2022-10-16T15:10:07;0.70;;;0.70;;
72235;SDS011;60146;52.498;13.462;2022-10-16T15:12:32;2.55;;;0.73;;
72235;SDS011;60146;52.498;13.462;2022-10-16T15:14:57;1.13;;;0.70;;
72235;SDS011;60146;52.498;13.462;2022-10-16T15:17:22;2.38;;;0.70;;
72235;SDS011;60146;52.498;13.462;2022-10-16T15:19:48;2.72;;;0.65;;
72235;SDS011;60146;52.498;13.462;2022-10-16T15:22:13;2.24;;;0.90;;
72235;SDS011;60146;52.498;13.462;2022-10-16T15:24:38;2.50;;;0.95;;
72235;SDS011;60146;52.498;13.462;2022-10-16T15:27:03;1.02;;;0.80;;
72235;SDS011;60146;52.498;13.462;2022-10-16T15:29:28;1.42;;;0.95;;
72235;SDS011;60146;52.498;13.462;2022-10-16T15:31:54;3.40;;;1.05;;
72235;SDS011;60146;52.498;13.462;2022-10-16T15:34:19;1.18;;;0.98;;
72235;SDS011;60146;52.498;13.462;2022-10-16T15:36:44;2.15;;;1.13;;
72235;SDS011;60146;52.498;13.462;2022-10-16T15:39:16;1.27;;;1.00;;
72235;SDS011;60146;52.498;13.462;2022-10-16T15:41:42;1.33;;;0.90;;
72235;SDS011;60146;52.498;13.462;2022-10-16T15:44:08;2.77;;;0.80;;
72235;SDS011;60146;52.498;13.462;2022-10-16T15:46:33;1.63;;;1.00;;
72235;SDS011;60146;52.498;13.462;2022-10-16T15:48:59;0.90;;;0.70;;
72235;SDS011;60146;52.498;13.462;2022-10-16T15:51:25;2.03;;;1.25;;
72235;SDS011;60146;52.498;13.462;2022-10-16T15:53:52;1.77;;;0.88;;
72235;SDS011;60146;52.498;13.462;2022-10-16T15:56:18;1.90;;;1.20;;
72235;SDS011;60146;52.498;13.462;2022-10-16T15:58:43;1.66;;;0.90;;
72235;SDS011;60146;52.498;13.462;2022-10-16T16:01:09;0.96;;;0.80;;